AAL3007 KDFW-KLAX
Flight info
| Callsign | AAL3007 |
|---|---|
| Flight time | 2h 53m |
| Altitude | 40000 |
| Route | KATZZ2 BRHMA CNX ONM SJN DRK J231 HIPPI GABBL HLYWD1 |
| Aircraft | B772/H-SDE2E3FGHIJ5LORVWXY/LB1D1 |
Departure
| Time | 2026-04-26 02:16 |
|---|---|
| Airport | Dallas Fort Worth International Airport (KDFW) |
Arrival
| Time | 2026-04-26 05:09 |
|---|---|
| Airport | Los Angeles International Airport (KLAX) |
| Time | Latitude | Longitude | Altitude | Speed | Heading |
|---|---|---|---|---|---|
| 2026-04-26 01:53 | 32.90009 | -97.04576 | 603 ft | 0 kts | 149° |
| 2026-04-26 02:03 | 32.90008 | -97.04576 | 603 ft | 0 kts | 149° |
| 2026-04-26 02:04 | 32.90009 | -97.04576 | 603 ft | 0 kts | 149° |
| 2026-04-26 02:08 | 32.90012 | -97.04578 | 603 ft | 3 kts | 149° |
| 2026-04-26 02:08 | 32.90035 | -97.04594 | 603 ft | 2 kts | 149° |
| 2026-04-26 02:08 | 32.90055 | -97.04605 | 603 ft | 4 kts | 186° |
| 2026-04-26 02:08 | 32.90075 | -97.04592 | 603 ft | 4 kts | 243° |
| 2026-04-26 02:09 | 32.90081 | -97.04563 | 603 ft | 4 kts | 270° |
| 2026-04-26 02:09 | 32.90081 | -97.04531 | 603 ft | 4 kts | 270° |
| 2026-04-26 02:09 | 32.90081 | -97.04516 | 603 ft | 0 kts | 270° |
| 2026-04-26 02:10 | 32.90081 | -97.04527 | 603 ft | 10 kts | 270° |
| 2026-04-26 02:11 | 32.90080 | -97.04624 | 602 ft | 12 kts | 270° |
| 2026-04-26 02:11 | 32.90084 | -97.04716 | 602 ft | 11 kts | 282° |
| 2026-04-26 02:11 | 32.90108 | -97.04802 | 603 ft | 11 kts | 283° |
| 2026-04-26 02:11 | 32.90145 | -97.04877 | 603 ft | 11 kts | 332° |
| 2026-04-26 02:12 | 32.90224 | -97.04883 | 613 ft | 13 kts | 359° |
| 2026-04-26 02:12 | 32.90331 | -97.04884 | 604 ft | 17 kts | 360° |
| 2026-04-26 02:12 | 32.90451 | -97.04883 | 604 ft | 17 kts | 1° |
| 2026-04-26 02:12 | 32.90571 | -97.04884 | 613 ft | 17 kts | 359° |
| 2026-04-26 02:13 | 32.90692 | -97.04884 | 615 ft | 17 kts | 0° |
| 2026-04-26 02:13 | 32.90812 | -97.04884 | 617 ft | 17 kts | 0° |
| 2026-04-26 02:13 | 32.90932 | -97.04882 | 619 ft | 17 kts | 0° |
| 2026-04-26 02:13 | 32.91052 | -97.04880 | 623 ft | 17 kts | 1° |
| 2026-04-26 02:14 | 32.91173 | -97.04878 | 623 ft | 17 kts | 1° |
| 2026-04-26 02:14 | 32.91293 | -97.04876 | 622 ft | 17 kts | 356° |
| 2026-04-26 02:14 | 32.91413 | -97.04878 | 629 ft | 17 kts | 0° |
| 2026-04-26 02:14 | 32.91528 | -97.04889 | 627 ft | 14 kts | 333° |
| 2026-04-26 02:15 | 32.91559 | -97.04964 | 629 ft | 10 kts | 273° |
| 2026-04-26 02:15 | 32.91546 | -97.05042 | 624 ft | 10 kts | 235° |
| 2026-04-26 02:15 | 32.91489 | -97.05071 | 625 ft | 0 kts | 181° |
| 2026-04-26 02:15 | 32.91448 | -97.05071 | 624 ft | 35 kts | 180° |
| 2026-04-26 02:16 | 32.90856 | -97.05072 | 618 ft | 132 kts | 180° |
| 2026-04-26 02:16 | 32.89692 | -97.05071 | 933 ft | 187 kts | 177° |
| 2026-04-26 02:16 | 32.88304 | -97.05066 | 1794 ft | 209 kts | 179° |
| 2026-04-26 02:16 | 32.86813 | -97.05075 | 2931 ft | 220 kts | 181° |
| 2026-04-26 02:17 | 32.85236 | -97.05095 | 3702 ft | 232 kts | 182° |
| 2026-04-26 02:17 | 32.83595 | -97.05121 | 4458 ft | 239 kts | 183° |
| 2026-04-26 02:17 | 32.81912 | -97.05151 | 5274 ft | 245 kts | 184° |
| 2026-04-26 02:17 | 32.80180 | -97.05189 | 6020 ft | 253 kts | 185° |
| 2026-04-26 02:18 | 32.78403 | -97.05232 | 6755 ft | 259 kts | 185° |
| 2026-04-26 02:18 | 32.76585 | -97.05278 | 7538 ft | 262 kts | 186° |
| 2026-04-26 02:18 | 32.74750 | -97.05326 | 8312 ft | 266 kts | 186° |
| 2026-04-26 02:18 | 32.72935 | -97.05477 | 8965 ft | 264 kts | 199° |
| 2026-04-26 02:19 | 32.71323 | -97.06514 | 9603 ft | 263 kts | 227° |
| 2026-04-26 02:19 | 32.70263 | -97.08258 | 10185 ft | 268 kts | 246° |
| 2026-04-26 02:19 | 32.69682 | -97.10445 | 10425 ft | 291 kts | 257° |
| 2026-04-26 02:19 | 32.69215 | -97.12901 | 10617 ft | 317 kts | 259° |
| 2026-04-26 02:20 | 32.69116 | -97.15567 | 10759 ft | 332 kts | 275° |
| 2026-04-26 02:20 | 32.69372 | -97.18355 | 11327 ft | 345 kts | 274° |
| 2026-04-26 02:20 | 32.69560 | -97.21227 | 12270 ft | 350 kts | 273° |
| 2026-04-26 02:20 | 32.69726 | -97.24119 | 13354 ft | 352 kts | 274° |
| 2026-04-26 02:21 | 32.69948 | -97.27029 | 14330 ft | 356 kts | 278° |
| 2026-04-26 02:21 | 32.70386 | -97.29944 | 15279 ft | 361 kts | 281° |
| 2026-04-26 02:21 | 32.70918 | -97.32878 | 16240 ft | 366 kts | 282° |
| 2026-04-26 02:21 | 32.71466 | -97.35839 | 17245 ft | 370 kts | 282° |
| 2026-04-26 02:22 | 32.72012 | -97.38847 | 18220 ft | 374 kts | 282° |
| 2026-04-26 02:22 | 32.72549 | -97.41889 | 19084 ft | 379 kts | 282° |
| 2026-04-26 02:22 | 32.73080 | -97.44972 | 19960 ft | 384 kts | 281° |
| 2026-04-26 02:22 | 32.73610 | -97.48095 | 20821 ft | 388 kts | 281° |
| 2026-04-26 02:23 | 32.74141 | -97.51258 | 21753 ft | 393 kts | 281° |
| 2026-04-26 02:23 | 32.74678 | -97.54469 | 22573 ft | 399 kts | 281° |
| 2026-04-26 02:23 | 32.75222 | -97.57728 | 23371 ft | 404 kts | 281° |
| 2026-04-26 02:23 | 32.75772 | -97.61027 | 24064 ft | 408 kts | 281° |
| 2026-04-26 02:24 | 32.76321 | -97.64334 | 24828 ft | 409 kts | 281° |
| 2026-04-26 02:24 | 32.76874 | -97.67659 | 25585 ft | 410 kts | 281° |
| 2026-04-26 02:24 | 32.77426 | -97.70988 | 26283 ft | 412 kts | 281° |
| 2026-04-26 02:24 | 32.78000 | -97.74337 | 26921 ft | 415 kts | 283° |
| 2026-04-26 02:25 | 32.78712 | -97.77663 | 27493 ft | 418 kts | 285° |
| 2026-04-26 02:25 | 32.79509 | -97.80999 | 28021 ft | 421 kts | 286° |
| 2026-04-26 02:25 | 32.80334 | -97.84361 | 28548 ft | 424 kts | 286° |
| 2026-04-26 02:25 | 32.81156 | -97.87732 | 28942 ft | 426 kts | 286° |
| 2026-04-26 02:26 | 32.81970 | -97.91129 | 29436 ft | 428 kts | 285° |
| 2026-04-26 02:26 | 32.82777 | -97.94540 | 29884 ft | 430 kts | 285° |
| 2026-04-26 02:26 | 32.83581 | -97.97977 | 30286 ft | 431 kts | 285° |
| 2026-04-26 02:26 | 32.84380 | -98.01409 | 30683 ft | 431 kts | 285° |
| 2026-04-26 02:27 | 32.85176 | -98.04837 | 31140 ft | 429 kts | 285° |
| 2026-04-26 02:27 | 32.85963 | -98.08234 | 31711 ft | 423 kts | 285° |
| 2026-04-26 02:27 | 32.86738 | -98.11580 | 32393 ft | 416 kts | 285° |
| 2026-04-26 02:27 | 32.87498 | -98.14866 | 33048 ft | 410 kts | 285° |
| 2026-04-26 02:28 | 32.88249 | -98.18108 | 33668 ft | 404 kts | 285° |
| 2026-04-26 02:28 | 32.88981 | -98.21278 | 34180 ft | 401 kts | 285° |
| 2026-04-26 02:28 | 32.89720 | -98.24482 | 34479 ft | 402 kts | 285° |
| 2026-04-26 02:28 | 32.90461 | -98.27692 | 34782 ft | 402 kts | 285° |
| 2026-04-26 02:29 | 32.91201 | -98.30902 | 35156 ft | 401 kts | 285° |
| 2026-04-26 02:29 | 32.91937 | -98.34093 | 35541 ft | 399 kts | 285° |
| 2026-04-26 02:29 | 32.92671 | -98.37281 | 35853 ft | 399 kts | 285° |
| 2026-04-26 02:29 | 32.93403 | -98.40467 | 36157 ft | 399 kts | 285° |
| 2026-04-26 02:30 | 32.94134 | -98.43650 | 36478 ft | 399 kts | 285° |
| 2026-04-26 02:30 | 32.94863 | -98.46831 | 36798 ft | 398 kts | 285° |
| 2026-04-26 02:30 | 32.95591 | -98.50008 | 37085 ft | 398 kts | 285° |
| 2026-04-26 02:30 | 32.96316 | -98.53182 | 37380 ft | 397 kts | 285° |
| 2026-04-26 02:31 | 32.97039 | -98.56352 | 37670 ft | 397 kts | 285° |
| 2026-04-26 02:31 | 32.97762 | -98.59521 | 37943 ft | 397 kts | 285° |
| 2026-04-26 02:31 | 32.98486 | -98.62696 | 38242 ft | 396 kts | 285° |
| 2026-04-26 02:31 | 32.99206 | -98.65860 | 38494 ft | 396 kts | 285° |
| 2026-04-26 02:32 | 32.99927 | -98.69032 | 38698 ft | 397 kts | 285° |
| 2026-04-26 02:32 | 33.00647 | -98.72206 | 38835 ft | 397 kts | 285° |
| 2026-04-26 02:32 | 33.01368 | -98.75391 | 38967 ft | 399 kts | 285° |
| 2026-04-26 02:32 | 33.02091 | -98.78586 | 39155 ft | 400 kts | 285° |
| 2026-04-26 02:33 | 33.02569 | -98.80701 | 39283 ft | 400 kts | 285° |
| 2026-04-26 02:33 | 33.03293 | -98.83904 | 39471 ft | 400 kts | 285° |
| 2026-04-26 02:33 | 33.04016 | -98.87110 | 39565 ft | 402 kts | 285° |
| 2026-04-26 02:34 | 33.05468 | -98.93564 | 39658 ft | 403 kts | 285° |
| 2026-04-26 02:34 | 33.06911 | -98.99991 | 39644 ft | 400 kts | 285° |
| 2026-04-26 02:35 | 33.08341 | -99.06376 | 39643 ft | 398 kts | 285° |
| 2026-04-26 02:35 | 33.09768 | -99.12766 | 39636 ft | 398 kts | 285° |
| 2026-04-26 02:36 | 33.11188 | -99.19140 | 39645 ft | 398 kts | 285° |
| 2026-04-26 02:36 | 33.12608 | -99.25531 | 39637 ft | 399 kts | 285° |
| 2026-04-26 02:37 | 33.14018 | -99.31898 | 39630 ft | 399 kts | 285° |
| 2026-04-26 02:37 | 33.15434 | -99.38305 | 39642 ft | 400 kts | 285° |
| 2026-04-26 02:38 | 33.16849 | -99.44722 | 39647 ft | 400 kts | 284° |
| 2026-04-26 02:38 | 33.18263 | -99.51157 | 39639 ft | 401 kts | 284° |
| 2026-04-26 02:39 | 33.19676 | -99.57595 | 39638 ft | 400 kts | 284° |
| 2026-04-26 02:39 | 33.21105 | -99.64023 | 39641 ft | 400 kts | 285° |
| 2026-04-26 02:40 | 33.22567 | -99.70438 | 39647 ft | 400 kts | 285° |
| 2026-04-26 02:40 | 33.24026 | -99.76853 | 39648 ft | 400 kts | 285° |
| 2026-04-26 02:41 | 33.25479 | -99.83273 | 39643 ft | 400 kts | 285° |
| 2026-04-26 02:41 | 33.26922 | -99.89679 | 39641 ft | 399 kts | 284° |
| 2026-04-26 02:42 | 33.28360 | -99.96078 | 39661 ft | 398 kts | 284° |
| 2026-04-26 02:42 | 33.29793 | -100.02476 | 39641 ft | 399 kts | 284° |
| 2026-04-26 02:43 | 33.31939 | -100.12088 | 39641 ft | 399 kts | 284° |
| 2026-04-26 02:43 | 33.33365 | -100.18498 | 39638 ft | 399 kts | 284° |
| 2026-04-26 02:44 | 33.34779 | -100.24865 | 39642 ft | 399 kts | 284° |
| 2026-04-26 02:44 | 33.36196 | -100.31265 | 39640 ft | 398 kts | 284° |
| 2026-04-26 02:45 | 33.37609 | -100.37667 | 39644 ft | 398 kts | 284° |
| 2026-04-26 02:45 | 33.39018 | -100.44061 | 39647 ft | 397 kts | 284° |
| 2026-04-26 02:46 | 33.40421 | -100.50451 | 39644 ft | 397 kts | 284° |
| 2026-04-26 02:46 | 33.41821 | -100.56841 | 39647 ft | 397 kts | 284° |
| 2026-04-26 02:47 | 33.43215 | -100.63219 | 39651 ft | 396 kts | 283° |
| 2026-04-26 02:47 | 33.44606 | -100.69607 | 39650 ft | 396 kts | 284° |
| 2026-04-26 02:48 | 33.45990 | -100.75974 | 39658 ft | 395 kts | 283° |
| 2026-04-26 02:48 | 33.47371 | -100.82346 | 39660 ft | 395 kts | 283° |
| 2026-04-26 02:49 | 33.48750 | -100.88728 | 39666 ft | 396 kts | 284° |
| 2026-04-26 02:49 | 33.50128 | -100.95119 | 39661 ft | 396 kts | 284° |
| 2026-04-26 02:50 | 33.51506 | -101.01526 | 39669 ft | 397 kts | 284° |
| 2026-04-26 02:50 | 33.52861 | -101.07943 | 39672 ft | 397 kts | 283° |
| 2026-04-26 02:51 | 33.54160 | -101.14379 | 39670 ft | 398 kts | 283° |
| 2026-04-26 02:51 | 33.55454 | -101.20831 | 39671 ft | 398 kts | 283° |
| 2026-04-26 02:52 | 33.56749 | -101.27283 | 39669 ft | 398 kts | 283° |
| 2026-04-26 02:52 | 33.58044 | -101.33738 | 39675 ft | 398 kts | 283° |
| 2026-04-26 02:53 | 33.59333 | -101.40176 | 39682 ft | 397 kts | 282° |
| 2026-04-26 02:53 | 33.60618 | -101.46612 | 39709 ft | 396 kts | 282° |
| 2026-04-26 02:54 | 33.61896 | -101.53031 | 39731 ft | 396 kts | 282° |
| 2026-04-26 02:54 | 33.63163 | -101.59414 | 39752 ft | 395 kts | 282° |
| 2026-04-26 02:55 | 33.64433 | -101.65832 | 39777 ft | 395 kts | 282° |
| 2026-04-26 02:55 | 33.65701 | -101.72252 | 39836 ft | 395 kts | 282° |
| 2026-04-26 02:56 | 33.66962 | -101.78665 | 39804 ft | 395 kts | 282° |
| 2026-04-26 02:56 | 33.68223 | -101.85089 | 39797 ft | 395 kts | 282° |
| 2026-04-26 02:57 | 33.69479 | -101.91509 | 39795 ft | 395 kts | 282° |
| 2026-04-26 02:57 | 33.70731 | -101.97928 | 39778 ft | 395 kts | 282° |
| 2026-04-26 02:58 | 33.71980 | -102.04349 | 39759 ft | 395 kts | 282° |
| 2026-04-26 02:58 | 33.73225 | -102.10768 | 39731 ft | 394 kts | 282° |
| 2026-04-26 02:59 | 33.74465 | -102.17182 | 39710 ft | 393 kts | 282° |
| 2026-04-26 02:59 | 33.75698 | -102.23581 | 39681 ft | 393 kts | 282° |
| 2026-04-26 03:00 | 33.76919 | -102.29930 | 39690 ft | 392 kts | 282° |
| 2026-04-26 03:00 | 33.78143 | -102.36319 | 39684 ft | 392 kts | 282° |
| 2026-04-26 03:01 | 33.79363 | -102.42706 | 39697 ft | 392 kts | 281° |
| 2026-04-26 03:01 | 33.80580 | -102.49093 | 39679 ft | 392 kts | 281° |
| 2026-04-26 03:02 | 33.81792 | -102.55475 | 39682 ft | 391 kts | 281° |
| 2026-04-26 03:02 | 33.83001 | -102.61857 | 39700 ft | 391 kts | 281° |
| 2026-04-26 03:03 | 33.84206 | -102.68245 | 39690 ft | 392 kts | 281° |
| 2026-04-26 03:03 | 33.85411 | -102.74644 | 39687 ft | 392 kts | 281° |
| 2026-04-26 03:04 | 33.86612 | -102.81045 | 39688 ft | 392 kts | 281° |
| 2026-04-26 03:04 | 33.87809 | -102.87443 | 39686 ft | 392 kts | 281° |
| 2026-04-26 03:05 | 33.89003 | -102.93848 | 39683 ft | 392 kts | 281° |
| 2026-04-26 03:05 | 33.90194 | -103.00252 | 39681 ft | 392 kts | 281° |
| 2026-04-26 03:06 | 33.91373 | -103.06610 | 39681 ft | 392 kts | 281° |
| 2026-04-26 03:06 | 33.92555 | -103.13007 | 39681 ft | 392 kts | 281° |
| 2026-04-26 03:07 | 33.93734 | -103.19403 | 39684 ft | 391 kts | 280° |
| 2026-04-26 03:07 | 33.94910 | -103.25809 | 39681 ft | 391 kts | 280° |
| 2026-04-26 03:08 | 33.96082 | -103.32208 | 39682 ft | 391 kts | 280° |
| 2026-04-26 03:08 | 33.97250 | -103.38608 | 39677 ft | 391 kts | 280° |
| 2026-04-26 03:09 | 33.98415 | -103.45006 | 39678 ft | 391 kts | 280° |
| 2026-04-26 03:09 | 33.99576 | -103.51408 | 39682 ft | 391 kts | 280° |
| 2026-04-26 03:10 | 34.00734 | -103.57815 | 39679 ft | 391 kts | 280° |
| 2026-04-26 03:10 | 34.01890 | -103.64223 | 39667 ft | 391 kts | 280° |
| 2026-04-26 03:11 | 34.03040 | -103.70626 | 39665 ft | 391 kts | 280° |
| 2026-04-26 03:11 | 34.04188 | -103.77034 | 39671 ft | 391 kts | 280° |
| 2026-04-26 03:12 | 34.05324 | -103.83397 | 39630 ft | 391 kts | 280° |
| 2026-04-26 03:12 | 34.06465 | -103.89805 | 39628 ft | 391 kts | 279° |
| 2026-04-26 03:13 | 34.07600 | -103.96204 | 39617 ft | 390 kts | 279° |
| 2026-04-26 03:13 | 34.08732 | -104.02601 | 39615 ft | 390 kts | 279° |
| 2026-04-26 03:14 | 34.09859 | -104.08994 | 39625 ft | 389 kts | 279° |
| 2026-04-26 03:14 | 34.10983 | -104.15391 | 39630 ft | 389 kts | 279° |
| 2026-04-26 03:15 | 34.12102 | -104.21780 | 39620 ft | 389 kts | 279° |
| 2026-04-26 03:15 | 34.13216 | -104.28158 | 39634 ft | 389 kts | 279° |
| 2026-04-26 03:16 | 34.14332 | -104.34572 | 39631 ft | 390 kts | 279° |
| 2026-04-26 03:16 | 34.15446 | -104.40995 | 39666 ft | 392 kts | 279° |
| 2026-04-26 03:17 | 34.16561 | -104.47444 | 39656 ft | 393 kts | 279° |
| 2026-04-26 03:17 | 34.17676 | -104.53916 | 39671 ft | 394 kts | 279° |
| 2026-04-26 03:18 | 34.18783 | -104.60357 | 39668 ft | 394 kts | 279° |
| 2026-04-26 03:18 | 34.19893 | -104.66843 | 39688 ft | 394 kts | 279° |
| 2026-04-26 03:19 | 34.21000 | -104.73325 | 39687 ft | 394 kts | 278° |
| 2026-04-26 03:19 | 34.22104 | -104.79817 | 39684 ft | 394 kts | 278° |
| 2026-04-26 03:20 | 34.23019 | -104.85213 | 39693 ft | 394 kts | 278° |
| 2026-04-26 03:20 | 34.23779 | -104.91741 | 39692 ft | 392 kts | 273° |
| 2026-04-26 03:21 | 34.24219 | -104.98309 | 39703 ft | 392 kts | 272° |
| 2026-04-26 03:21 | 34.24647 | -105.04871 | 39710 ft | 392 kts | 272° |
| 2026-04-26 03:22 | 34.25068 | -105.11433 | 39719 ft | 392 kts | 272° |
| 2026-04-26 03:22 | 34.25504 | -105.18010 | 39725 ft | 392 kts | 272° |
| 2026-04-26 03:23 | 34.25941 | -105.24588 | 39735 ft | 392 kts | 272° |
| 2026-04-26 03:23 | 34.26367 | -105.31120 | 39736 ft | 393 kts | 272° |
| 2026-04-26 03:24 | 34.26790 | -105.37702 | 39748 ft | 393 kts | 272° |
| 2026-04-26 03:24 | 34.27211 | -105.44307 | 39766 ft | 395 kts | 272° |
| 2026-04-26 03:25 | 34.27630 | -105.50934 | 39765 ft | 396 kts | 272° |
| 2026-04-26 03:25 | 34.28046 | -105.57574 | 39761 ft | 397 kts | 272° |
| 2026-04-26 03:26 | 34.28460 | -105.64231 | 39791 ft | 397 kts | 272° |
| 2026-04-26 03:26 | 34.28871 | -105.70891 | 39781 ft | 396 kts | 272° |
| 2026-04-26 03:27 | 34.29277 | -105.77525 | 39774 ft | 394 kts | 272° |
| 2026-04-26 03:27 | 34.29676 | -105.84117 | 39782 ft | 392 kts | 272° |
| 2026-04-26 03:28 | 34.30068 | -105.90645 | 39781 ft | 391 kts | 271° |
| 2026-04-26 03:28 | 34.30460 | -105.97246 | 39798 ft | 391 kts | 271° |
| 2026-04-26 03:29 | 34.30844 | -106.03761 | 39792 ft | 390 kts | 271° |
| 2026-04-26 03:29 | 34.31227 | -106.10316 | 39784 ft | 390 kts | 271° |
| 2026-04-26 03:30 | 34.31605 | -106.16859 | 39792 ft | 390 kts | 271° |
| 2026-04-26 03:30 | 34.31980 | -106.23405 | 39782 ft | 390 kts | 271° |
| 2026-04-26 03:31 | 34.32348 | -106.29910 | 39778 ft | 389 kts | 271° |
| 2026-04-26 03:31 | 34.32707 | -106.36440 | 39759 ft | 390 kts | 271° |
| 2026-04-26 03:32 | 34.33076 | -106.42987 | 39767 ft | 391 kts | 271° |
| 2026-04-26 03:32 | 34.33443 | -106.49560 | 39749 ft | 392 kts | 271° |
| 2026-04-26 03:33 | 34.33804 | -106.56132 | 39760 ft | 392 kts | 271° |
| 2026-04-26 03:33 | 34.34161 | -106.62723 | 39759 ft | 394 kts | 271° |
| 2026-04-26 03:34 | 34.34515 | -106.69338 | 39785 ft | 394 kts | 271° |
| 2026-04-26 03:34 | 34.34865 | -106.75961 | 39758 ft | 394 kts | 270° |
| 2026-04-26 03:35 | 34.35213 | -106.82575 | 39748 ft | 394 kts | 270° |
| 2026-04-26 03:35 | 34.35557 | -106.89208 | 39765 ft | 395 kts | 270° |
| 2026-04-26 03:36 | 34.35897 | -106.95834 | 39766 ft | 394 kts | 270° |
| 2026-04-26 03:36 | 34.36234 | -107.02461 | 39756 ft | 394 kts | 270° |
| 2026-04-26 03:37 | 34.36567 | -107.09082 | 39759 ft | 394 kts | 270° |
| 2026-04-26 03:37 | 34.36898 | -107.15718 | 39760 ft | 396 kts | 270° |
| 2026-04-26 03:38 | 34.37225 | -107.22380 | 39762 ft | 397 kts | 270° |
| 2026-04-26 03:38 | 34.37549 | -107.29052 | 39766 ft | 397 kts | 270° |
| 2026-04-26 03:39 | 34.37869 | -107.35694 | 39789 ft | 398 kts | 270° |
| 2026-04-26 03:39 | 34.38188 | -107.42386 | 39775 ft | 398 kts | 270° |
| 2026-04-26 03:40 | 34.38503 | -107.49082 | 39801 ft | 399 kts | 270° |
| 2026-04-26 03:40 | 34.38815 | -107.55790 | 39800 ft | 399 kts | 270° |
| 2026-04-26 03:41 | 34.39123 | -107.62503 | 39796 ft | 400 kts | 270° |
| 2026-04-26 03:41 | 34.39429 | -107.69223 | 39807 ft | 400 kts | 270° |
| 2026-04-26 03:42 | 34.39730 | -107.75936 | 39831 ft | 399 kts | 270° |
| 2026-04-26 03:42 | 34.40027 | -107.82660 | 39811 ft | 399 kts | 269° |
| 2026-04-26 03:43 | 34.40321 | -107.89364 | 39808 ft | 399 kts | 269° |
| 2026-04-26 03:43 | 34.40610 | -107.96063 | 39810 ft | 398 kts | 269° |
| 2026-04-26 03:44 | 34.40895 | -108.02758 | 39820 ft | 398 kts | 269° |
| 2026-04-26 03:44 | 34.41177 | -108.09468 | 39810 ft | 399 kts | 269° |
| 2026-04-26 03:45 | 34.41455 | -108.16171 | 39804 ft | 399 kts | 269° |
| 2026-04-26 03:45 | 34.41731 | -108.22882 | 39807 ft | 399 kts | 269° |
| 2026-04-26 03:46 | 34.42001 | -108.29585 | 39802 ft | 399 kts | 269° |
| 2026-04-26 03:47 | 34.42393 | -108.39645 | 39810 ft | 399 kts | 269° |
| 2026-04-26 03:47 | 34.42652 | -108.46310 | 39807 ft | 399 kts | 269° |
| 2026-04-26 03:48 | 34.42910 | -108.53028 | 39794 ft | 398 kts | 269° |
| 2026-04-26 03:48 | 34.43164 | -108.59721 | 39790 ft | 397 kts | 269° |
| 2026-04-26 03:49 | 34.43415 | -108.66396 | 39784 ft | 396 kts | 269° |
| 2026-04-26 03:49 | 34.43662 | -108.73057 | 39789 ft | 395 kts | 269° |
| 2026-04-26 03:50 | 34.43912 | -108.79705 | 39807 ft | 395 kts | 269° |
| 2026-04-26 03:50 | 34.44152 | -108.86351 | 39796 ft | 395 kts | 268° |
| 2026-04-26 03:51 | 34.44386 | -108.92991 | 39793 ft | 394 kts | 268° |
| 2026-04-26 03:51 | 34.44615 | -108.99622 | 39775 ft | 394 kts | 268° |
| 2026-04-26 03:52 | 34.44842 | -109.06259 | 39784 ft | 394 kts | 268° |
| 2026-04-26 03:52 | 34.45065 | -109.12890 | 39795 ft | 394 kts | 268° |
| 2026-04-26 03:53 | 34.45284 | -109.19530 | 39807 ft | 394 kts | 268° |
| 2026-04-26 03:53 | 34.45393 | -109.22853 | 39943 ft | 395 kts | 268° |
| 2026-04-26 03:53 | 34.45501 | -109.26181 | 39954 ft | 395 kts | 268° |
| 2026-04-26 03:54 | 34.45711 | -109.32795 | 39979 ft | 396 kts | 268° |
| 2026-04-26 03:54 | 34.45921 | -109.39464 | 39970 ft | 396 kts | 268° |
| 2026-04-26 03:55 | 34.46128 | -109.46135 | 39960 ft | 396 kts | 268° |
| 2026-04-26 03:55 | 34.46330 | -109.52801 | 39936 ft | 396 kts | 268° |
| 2026-04-26 03:56 | 34.46530 | -109.59472 | 39909 ft | 396 kts | 267° |
| 2026-04-26 03:56 | 34.46725 | -109.66144 | 39866 ft | 396 kts | 267° |
| 2026-04-26 03:57 | 34.46917 | -109.72826 | 39787 ft | 396 kts | 267° |
| 2026-04-26 03:57 | 34.47105 | -109.79502 | 39788 ft | 396 kts | 267° |
| 2026-04-26 03:58 | 34.47290 | -109.86176 | 39797 ft | 397 kts | 267° |
| 2026-04-26 03:58 | 34.47471 | -109.92861 | 39796 ft | 397 kts | 267° |
| 2026-04-26 03:59 | 34.47639 | -109.99540 | 39805 ft | 397 kts | 267° |
| 2026-04-26 03:59 | 34.47804 | -110.06232 | 39803 ft | 397 kts | 267° |
| 2026-04-26 04:00 | 34.47977 | -110.12885 | 39814 ft | 397 kts | 267° |
| 2026-04-26 04:00 | 34.48147 | -110.19572 | 39819 ft | 397 kts | 267° |
| 2026-04-26 04:01 | 34.48311 | -110.26263 | 39820 ft | 397 kts | 267° |
| 2026-04-26 04:01 | 34.48471 | -110.32955 | 39818 ft | 397 kts | 267° |
| 2026-04-26 04:02 | 34.48627 | -110.39642 | 39828 ft | 397 kts | 267° |
| 2026-04-26 04:02 | 34.48776 | -110.46336 | 39851 ft | 397 kts | 267° |
| 2026-04-26 04:03 | 34.48923 | -110.53040 | 39832 ft | 398 kts | 267° |
| 2026-04-26 04:03 | 34.49078 | -110.59756 | 39827 ft | 399 kts | 267° |
| 2026-04-26 04:04 | 34.49225 | -110.66483 | 39822 ft | 400 kts | 267° |
| 2026-04-26 04:04 | 34.49365 | -110.73226 | 39838 ft | 400 kts | 267° |
| 2026-04-26 04:05 | 34.49499 | -110.79981 | 39824 ft | 401 kts | 267° |
| 2026-04-26 04:05 | 34.49630 | -110.86745 | 39837 ft | 402 kts | 266° |
| 2026-04-26 04:06 | 34.49758 | -110.93521 | 39831 ft | 403 kts | 266° |
| 2026-04-26 04:06 | 34.49882 | -111.00308 | 39829 ft | 403 kts | 266° |
| 2026-04-26 04:07 | 34.50002 | -111.07053 | 39835 ft | 403 kts | 266° |
| 2026-04-26 04:07 | 34.50116 | -111.13843 | 39835 ft | 402 kts | 266° |
| 2026-04-26 04:08 | 34.50228 | -111.20624 | 39850 ft | 402 kts | 266° |
| 2026-04-26 04:08 | 34.50333 | -111.27398 | 39834 ft | 402 kts | 266° |
| 2026-04-26 04:09 | 34.50419 | -111.33030 | 39837 ft | 401 kts | 266° |
| 2026-04-26 04:09 | 34.50522 | -111.39797 | 39835 ft | 401 kts | 266° |
| 2026-04-26 04:10 | 34.50620 | -111.46549 | 39829 ft | 401 kts | 266° |
| 2026-04-26 04:10 | 34.50715 | -111.53299 | 39841 ft | 401 kts | 266° |
| 2026-04-26 04:11 | 34.50806 | -111.60059 | 39826 ft | 401 kts | 266° |
| 2026-04-26 04:11 | 34.50893 | -111.66809 | 39837 ft | 401 kts | 266° |
| 2026-04-26 04:12 | 34.50977 | -111.73573 | 39847 ft | 402 kts | 266° |
| 2026-04-26 04:12 | 34.51055 | -111.80371 | 39848 ft | 403 kts | 266° |
| 2026-04-26 04:13 | 34.51132 | -111.87174 | 39819 ft | 404 kts | 266° |
| 2026-04-26 04:13 | 34.51204 | -111.93987 | 39800 ft | 405 kts | 266° |
| 2026-04-26 04:14 | 34.51274 | -112.00803 | 39813 ft | 404 kts | 266° |
| 2026-04-26 04:14 | 34.51340 | -112.07611 | 39819 ft | 403 kts | 266° |
| 2026-04-26 04:15 | 34.51402 | -112.14406 | 39857 ft | 403 kts | 266° |
| 2026-04-26 04:15 | 34.51458 | -112.21195 | 39877 ft | 403 kts | 266° |
| 2026-04-26 04:16 | 34.51520 | -112.28001 | 39894 ft | 404 kts | 266° |
| 2026-04-26 04:16 | 34.51575 | -112.34772 | 39907 ft | 404 kts | 266° |
| 2026-04-26 04:17 | 34.51622 | -112.41595 | 39913 ft | 405 kts | 266° |
| 2026-04-26 04:17 | 34.51659 | -112.48416 | 39919 ft | 405 kts | 265° |
| 2026-04-26 04:17 | 34.51665 | -112.51835 | 39790 ft | 405 kts | 265° |
| 2026-04-26 04:18 | 34.51672 | -112.55249 | 39785 ft | 405 kts | 265° |
| 2026-04-26 04:18 | 34.51699 | -112.62075 | 39793 ft | 405 kts | 265° |
| 2026-04-26 04:19 | 34.51730 | -112.68914 | 39787 ft | 406 kts | 265° |
| 2026-04-26 04:19 | 34.51761 | -112.75761 | 39776 ft | 406 kts | 265° |
| 2026-04-26 04:20 | 34.51786 | -112.82617 | 39783 ft | 407 kts | 265° |
| 2026-04-26 04:20 | 34.51807 | -112.89476 | 39775 ft | 407 kts | 265° |
| 2026-04-26 04:21 | 34.51824 | -112.96337 | 39780 ft | 407 kts | 265° |
| 2026-04-26 04:21 | 34.51837 | -113.03213 | 39770 ft | 408 kts | 265° |
| 2026-04-26 04:22 | 34.51845 | -113.10101 | 39766 ft | 408 kts | 265° |
| 2026-04-26 04:22 | 34.51860 | -113.16992 | 39764 ft | 409 kts | 266° |
| 2026-04-26 04:23 | 34.51884 | -113.23888 | 39760 ft | 409 kts | 265° |
| 2026-04-26 04:23 | 34.51882 | -113.30785 | 39759 ft | 409 kts | 265° |
| 2026-04-26 04:24 | 34.51873 | -113.37646 | 39742 ft | 410 kts | 265° |
| 2026-04-26 04:24 | 34.51864 | -113.44555 | 39761 ft | 410 kts | 265° |
| 2026-04-26 04:25 | 34.51850 | -113.51452 | 39747 ft | 407 kts | 265° |
| 2026-04-26 04:25 | 34.51831 | -113.58313 | 39736 ft | 407 kts | 265° |
| 2026-04-26 04:26 | 34.51808 | -113.65175 | 39737 ft | 407 kts | 265° |
| 2026-04-26 04:26 | 34.51782 | -113.72038 | 39741 ft | 407 kts | 265° |
| 2026-04-26 04:27 | 34.51752 | -113.78902 | 39744 ft | 408 kts | 265° |
| 2026-04-26 04:27 | 34.51718 | -113.85789 | 39735 ft | 409 kts | 265° |
| 2026-04-26 04:28 | 34.51680 | -113.92680 | 39725 ft | 409 kts | 265° |
| 2026-04-26 04:28 | 34.51640 | -113.99582 | 39728 ft | 409 kts | 265° |
| 2026-04-26 04:29 | 34.51474 | -114.06442 | 39736 ft | 404 kts | 258° |
| 2026-04-26 04:29 | 34.50110 | -114.12940 | 39749 ft | 401 kts | 253° |
| 2026-04-26 04:30 | 34.48678 | -114.19483 | 39762 ft | 403 kts | 253° |
| 2026-04-26 04:30 | 34.47266 | -114.26061 | 39766 ft | 404 kts | 253° |
| 2026-04-26 04:31 | 34.45856 | -114.32671 | 39764 ft | 405 kts | 253° |
| 2026-04-26 04:31 | 34.44444 | -114.39287 | 39718 ft | 406 kts | 253° |
| 2026-04-26 04:32 | 34.43023 | -114.45910 | 39710 ft | 406 kts | 253° |
| 2026-04-26 04:32 | 34.41603 | -114.52540 | 39709 ft | 407 kts | 253° |
| 2026-04-26 04:33 | 34.40176 | -114.59176 | 39712 ft | 407 kts | 253° |
| 2026-04-26 04:33 | 34.38751 | -114.65773 | 39717 ft | 407 kts | 253° |
| 2026-04-26 04:34 | 34.37314 | -114.72410 | 39709 ft | 407 kts | 253° |
| 2026-04-26 04:34 | 34.35875 | -114.79037 | 39714 ft | 407 kts | 253° |
| 2026-04-26 04:35 | 34.34433 | -114.85661 | 39715 ft | 406 kts | 253° |
| 2026-04-26 04:35 | 34.32992 | -114.92262 | 39726 ft | 406 kts | 252° |
| 2026-04-26 04:36 | 34.31544 | -114.98871 | 39732 ft | 407 kts | 252° |
| 2026-04-26 04:36 | 34.30089 | -115.05492 | 39737 ft | 409 kts | 252° |
| 2026-04-26 04:37 | 34.28623 | -115.12151 | 39736 ft | 410 kts | 252° |
| 2026-04-26 04:37 | 34.27152 | -115.18818 | 39741 ft | 411 kts | 252° |
| 2026-04-26 04:38 | 34.25689 | -115.25501 | 39732 ft | 411 kts | 252° |
| 2026-04-26 04:38 | 34.24269 | -115.32198 | 39751 ft | 411 kts | 253° |
| 2026-04-26 04:39 | 34.22846 | -115.38896 | 39749 ft | 411 kts | 252° |
| 2026-04-26 04:39 | 34.21418 | -115.45573 | 39746 ft | 410 kts | 252° |
| 2026-04-26 04:40 | 34.19991 | -115.52221 | 39751 ft | 408 kts | 252° |
| 2026-04-26 04:40 | 34.18561 | -115.58862 | 39755 ft | 409 kts | 252° |
| 2026-04-26 04:41 | 34.17127 | -115.65507 | 39788 ft | 409 kts | 252° |
| 2026-04-26 04:41 | 34.15906 | -115.72229 | 39775 ft | 412 kts | 258° |
| 2026-04-26 04:42 | 34.15314 | -115.79125 | 39791 ft | 414 kts | 260° |
| 2026-04-26 04:42 | 34.14732 | -115.86004 | 39800 ft | 415 kts | 259° |
| 2026-04-26 04:43 | 34.14069 | -115.92939 | 39830 ft | 416 kts | 259° |
| 2026-04-26 04:43 | 34.13394 | -115.99828 | 39317 ft | 407 kts | 259° |
| 2026-04-26 04:43 | 34.13073 | -116.03141 | 38742 ft | 389 kts | 259° |
| 2026-04-26 04:44 | 34.12764 | -116.06324 | 38003 ft | 375 kts | 258° |
| 2026-04-26 04:44 | 34.12462 | -116.09414 | 37282 ft | 365 kts | 258° |
| 2026-04-26 04:44 | 34.12161 | -116.12450 | 36600 ft | 366 kts | 258° |
| 2026-04-26 04:44 | 34.11849 | -116.15532 | 35898 ft | 376 kts | 257° |
| 2026-04-26 04:45 | 34.11526 | -116.18713 | 35093 ft | 388 kts | 258° |
| 2026-04-26 04:45 | 34.11202 | -116.21989 | 34228 ft | 399 kts | 258° |
| 2026-04-26 04:45 | 34.10867 | -116.25358 | 33120 ft | 409 kts | 258° |
| 2026-04-26 04:45 | 34.10521 | -116.28810 | 32036 ft | 418 kts | 259° |
| 2026-04-26 04:46 | 34.10169 | -116.32295 | 31406 ft | 418 kts | 259° |
| 2026-04-26 04:46 | 34.09802 | -116.35766 | 30878 ft | 415 kts | 258° |
| 2026-04-26 04:46 | 34.09436 | -116.39168 | 30405 ft | 413 kts | 258° |
| 2026-04-26 04:46 | 34.09064 | -116.42604 | 29891 ft | 413 kts | 258° |
| 2026-04-26 04:47 | 34.08689 | -116.46084 | 29302 ft | 412 kts | 258° |
| 2026-04-26 04:47 | 34.08321 | -116.49505 | 28771 ft | 411 kts | 258° |
| 2026-04-26 04:47 | 34.07961 | -116.52852 | 28290 ft | 398 kts | 258° |
| 2026-04-26 04:47 | 34.07618 | -116.56068 | 27776 ft | 376 kts | 258° |
| 2026-04-26 04:48 | 34.06992 | -116.62126 | 26886 ft | 358 kts | 259° |
| 2026-04-26 04:48 | 34.06716 | -116.65119 | 26463 ft | 359 kts | 259° |
| 2026-04-26 04:48 | 34.06442 | -116.68107 | 26029 ft | 359 kts | 259° |
| 2026-04-26 04:49 | 34.06170 | -116.71093 | 25584 ft | 357 kts | 259° |
| 2026-04-26 04:49 | 34.05897 | -116.74065 | 25153 ft | 356 kts | 259° |
| 2026-04-26 04:49 | 34.05621 | -116.77019 | 24744 ft | 353 kts | 259° |
| 2026-04-26 04:49 | 34.05352 | -116.79956 | 24316 ft | 352 kts | 259° |
| 2026-04-26 04:50 | 34.05077 | -116.82878 | 23890 ft | 350 kts | 259° |
| 2026-04-26 04:50 | 34.04801 | -116.85784 | 23433 ft | 349 kts | 259° |
| 2026-04-26 04:50 | 34.04523 | -116.88692 | 22993 ft | 345 kts | 259° |
| 2026-04-26 04:50 | 34.04207 | -116.91534 | 22514 ft | 339 kts | 258° |
| 2026-04-26 04:51 | 34.03831 | -116.94317 | 22077 ft | 334 kts | 257° |
| 2026-04-26 04:51 | 34.03458 | -116.97063 | 21654 ft | 330 kts | 258° |
| 2026-04-26 04:51 | 34.03096 | -116.99787 | 21278 ft | 328 kts | 258° |
| 2026-04-26 04:51 | 34.02739 | -117.02509 | 20864 ft | 328 kts | 258° |
| 2026-04-26 04:52 | 34.02398 | -117.05231 | 20457 ft | 329 kts | 259° |
| 2026-04-26 04:52 | 34.02079 | -117.07935 | 20066 ft | 330 kts | 259° |
| 2026-04-26 04:52 | 34.01760 | -117.10673 | 19653 ft | 330 kts | 259° |
| 2026-04-26 04:52 | 34.01438 | -117.13419 | 19255 ft | 331 kts | 260° |
| 2026-04-26 04:53 | 34.01113 | -117.16168 | 18849 ft | 331 kts | 260° |
| 2026-04-26 04:53 | 34.00788 | -117.18909 | 18486 ft | 330 kts | 260° |
| 2026-04-26 04:53 | 34.00462 | -117.21642 | 18036 ft | 328 kts | 260° |
| 2026-04-26 04:53 | 34.00138 | -117.24359 | 17603 ft | 326 kts | 261° |
| 2026-04-26 04:54 | 33.99815 | -117.27053 | 17176 ft | 323 kts | 260° |
| 2026-04-26 04:54 | 33.99495 | -117.29721 | 16761 ft | 321 kts | 260° |
| 2026-04-26 04:54 | 33.99177 | -117.32366 | 16387 ft | 318 kts | 260° |
| 2026-04-26 04:54 | 33.98865 | -117.35005 | 15990 ft | 318 kts | 260° |
| 2026-04-26 04:55 | 33.98558 | -117.37636 | 15592 ft | 316 kts | 260° |
| 2026-04-26 04:55 | 33.98251 | -117.40257 | 15207 ft | 315 kts | 260° |
| 2026-04-26 04:55 | 33.97944 | -117.42871 | 14815 ft | 314 kts | 260° |
| 2026-04-26 04:55 | 33.97742 | -117.44597 | 14556 ft | 314 kts | 260° |
| 2026-04-26 04:56 | 33.97434 | -117.47191 | 14174 ft | 310 kts | 260° |
| 2026-04-26 04:56 | 33.97344 | -117.49735 | 13794 ft | 303 kts | 275° |
| 2026-04-26 04:56 | 33.97794 | -117.52200 | 13425 ft | 300 kts | 279° |
| 2026-04-26 04:56 | 33.98258 | -117.54641 | 13063 ft | 299 kts | 279° |
| 2026-04-26 04:57 | 33.98701 | -117.57089 | 12680 ft | 299 kts | 278° |
| 2026-04-26 04:57 | 33.99136 | -117.59536 | 12307 ft | 298 kts | 278° |
| 2026-04-26 04:57 | 33.99567 | -117.61970 | 11921 ft | 296 kts | 278° |
| 2026-04-26 04:57 | 33.99995 | -117.64392 | 11548 ft | 295 kts | 278° |
| 2026-04-26 04:58 | 34.00421 | -117.66810 | 11184 ft | 294 kts | 278° |
| 2026-04-26 04:58 | 34.00674 | -117.69193 | 10812 ft | 277 kts | 266° |
| 2026-04-26 04:58 | 34.00499 | -117.71421 | 10484 ft | 259 kts | 261° |
| 2026-04-26 04:58 | 34.00251 | -117.73564 | 10174 ft | 257 kts | 261° |
| 2026-04-26 04:59 | 34.00009 | -117.75690 | 9818 ft | 256 kts | 261° |
| 2026-04-26 04:59 | 33.99779 | -117.77813 | 9483 ft | 255 kts | 261° |
| 2026-04-26 04:59 | 33.99560 | -117.79929 | 9145 ft | 254 kts | 262° |
| 2026-04-26 04:59 | 33.99347 | -117.82036 | 8820 ft | 252 kts | 262° |
| 2026-04-26 05:00 | 33.99142 | -117.84132 | 8504 ft | 251 kts | 262° |
| 2026-04-26 05:00 | 33.98940 | -117.86216 | 8184 ft | 250 kts | 262° |
| 2026-04-26 05:00 | 33.98746 | -117.88293 | 7868 ft | 249 kts | 263° |
| 2026-04-26 05:00 | 33.98595 | -117.90370 | 7568 ft | 248 kts | 263° |
| 2026-04-26 05:01 | 33.98423 | -117.92427 | 7256 ft | 246 kts | 262° |
| 2026-04-26 05:01 | 33.98230 | -117.94474 | 6953 ft | 245 kts | 262° |
| 2026-04-26 05:01 | 33.98027 | -117.96510 | 6658 ft | 245 kts | 262° |
| 2026-04-26 05:01 | 33.97819 | -117.98547 | 6338 ft | 245 kts | 262° |
| 2026-04-26 05:02 | 33.97615 | -118.00550 | 6021 ft | 244 kts | 262° |
| 2026-04-26 05:02 | 33.97412 | -118.02532 | 5695 ft | 230 kts | 262° |
| 2026-04-26 05:02 | 33.97220 | -118.04399 | 5402 ft | 214 kts | 262° |
| 2026-04-26 05:02 | 33.97041 | -118.06146 | 5190 ft | 208 kts | 262° |
| 2026-04-26 05:03 | 33.96859 | -118.07907 | 4907 ft | 215 kts | 263° |
| 2026-04-26 05:03 | 33.96665 | -118.09792 | 4593 ft | 213 kts | 264° |
| 2026-04-26 05:03 | 33.96496 | -118.11449 | 4316 ft | 211 kts | 264° |
| 2026-04-26 05:03 | 33.96318 | -118.13178 | 4035 ft | 202 kts | 263° |
| 2026-04-26 05:04 | 33.96151 | -118.14799 | 3763 ft | 188 kts | 263° |
| 2026-04-26 05:04 | 33.95994 | -118.16319 | 3529 ft | 179 kts | 263° |
| 2026-04-26 05:04 | 33.95843 | -118.17787 | 3332 ft | 178 kts | 263° |
| 2026-04-26 05:04 | 33.95694 | -118.19249 | 3133 ft | 172 kts | 263° |
| 2026-04-26 05:05 | 33.95551 | -118.20642 | 2915 ft | 162 kts | 263° |
| 2026-04-26 05:05 | 33.95413 | -118.21985 | 2724 ft | 155 kts | 263° |
| 2026-04-26 05:05 | 33.95287 | -118.23206 | 2517 ft | 140 kts | 262° |
| 2026-04-26 05:05 | 33.95171 | -118.24317 | 2335 ft | 131 kts | 262° |
| 2026-04-26 05:06 | 33.95059 | -118.25402 | 2179 ft | 131 kts | 262° |
| 2026-04-26 05:06 | 33.94949 | -118.26480 | 2019 ft | 131 kts | 262° |
| 2026-04-26 05:06 | 33.94817 | -118.27561 | 1839 ft | 130 kts | 261° |
| 2026-04-26 05:06 | 33.94670 | -118.28638 | 1667 ft | 130 kts | 260° |
| 2026-04-26 05:07 | 33.94544 | -118.29715 | 1516 ft | 131 kts | 261° |
| 2026-04-26 05:07 | 33.94431 | -118.30800 | 1390 ft | 129 kts | 262° |
| 2026-04-26 05:07 | 33.94320 | -118.31870 | 1218 ft | 129 kts | 262° |
| 2026-04-26 05:07 | 33.94223 | -118.32949 | 1055 ft | 128 kts | 263° |
| 2026-04-26 05:08 | 33.94137 | -118.34028 | 869 ft | 129 kts | 263° |
| 2026-04-26 05:08 | 33.94038 | -118.35099 | 652 ft | 129 kts | 263° |
| 2026-04-26 05:08 | 33.93930 | -118.36166 | 444 ft | 128 kts | 264° |
| 2026-04-26 05:08 | 33.93838 | -118.37235 | 289 ft | 128 kts | 265° |
| 2026-04-26 05:09 | 33.93735 | -118.38267 | 147 ft | 122 kts | 263° |
| 2026-04-26 05:09 | 33.93634 | -118.39213 | 99 ft | 101 kts | 263° |
| 2026-04-26 05:09 | 33.93594 | -118.39659 | 100 ft | 36 kts | 263° |
| 2026-04-26 05:09 | 33.93568 | -118.39942 | 100 ft | 32 kts | 265° |
| 2026-04-26 05:10 | 33.93578 | -118.40199 | 102 ft | 30 kts | 283° |
| 2026-04-26 05:10 | 33.93609 | -118.40311 | 100 ft | 10 kts | 290° |
| 2026-04-26 05:10 | 33.93625 | -118.40388 | 101 ft | 10 kts | 278° |
| 2026-04-26 05:10 | 33.93623 | -118.40469 | 100 ft | 10 kts | 261° |
| 2026-04-26 05:11 | 33.93613 | -118.40548 | 102 ft | 10 kts | 261° |
| 2026-04-26 05:11 | 33.93604 | -118.40628 | 99 ft | 10 kts | 263° |
| 2026-04-26 05:11 | 33.93597 | -118.40708 | 100 ft | 10 kts | 265° |
| 2026-04-26 05:11 | 33.93596 | -118.40788 | 101 ft | 10 kts | 274° |
| 2026-04-26 05:12 | 33.93598 | -118.40810 | 101 ft | 0 kts | 279° |
| 2026-04-26 05:12 | 33.93608 | -118.40843 | 99 ft | 18 kts | 296° |
| 2026-04-26 05:13 | 33.93737 | -118.40904 | 99 ft | 20 kts | 3° |
| 2026-04-26 05:13 | 33.93794 | -118.40810 | 101 ft | 15 kts | 75° |
| 2026-04-26 05:13 | 33.93871 | -118.40771 | 99 ft | 15 kts | 320° |
| 2026-04-26 05:13 | 33.93966 | -118.40817 | 99 ft | 15 kts | 352° |
| 2026-04-26 05:14 | 33.94069 | -118.40833 | 98 ft | 14 kts | 352° |
| 2026-04-26 05:14 | 33.94095 | -118.40857 | 98 ft | 3 kts | 277° |
| 2026-04-26 05:14 | 33.94092 | -118.40886 | 97 ft | 4 kts | 264° |
| 2026-04-26 05:14 | 33.94089 | -118.40915 | 98 ft | 4 kts | 264° |
| 2026-04-26 05:15 | 33.94087 | -118.40945 | 100 ft | 3 kts | 263° |
| 2026-04-26 05:15 | 33.94087 | -118.40946 | 100 ft | 0 kts | 263° |